Time;durP1;ratioP1;P1;durP2;ratioP2;P2;SDS_P1;SDS_P2;PMS_P1;PMS_P2;Temp;Humidity;BMP_temperature;BMP_pressure;BME280_temperature;BME280_humidity;BME280_pressure;Samples;Min_cycle;Max_cycle;Signal;HPM_P1;HPM_P2
2022/04/07 00:00:42;;;;;;;2.65;0.65;;;;;;;26.93;30.92;95199.47;4907667;28;20031;-31
2022/04/07 00:03:07;;;;;;;3.15;0.77;;;;;;;26.93;30.95;95194.22;4901828;28;20031;-30
2022/04/07 00:05:32;;;;;;;5.30;0.60;;;;;;;26.92;30.92;95203.06;4901174;28;20890;-29
2022/04/07 00:07:58;;;;;;;2.63;0.60;;;;;;;26.92;31.00;95201.25;4909905;28;20035;-31
2022/04/07 00:10:23;;;;;;;2.80;0.77;;;;;;;26.93;30.97;95196.84;4908364;28;20027;-29
2022/04/07 00:12:48;;;;;;;2.97;1.00;;;;;;;26.93;31.01;95194.22;4912896;28;21318;-27
2022/04/07 00:15:14;;;;;;;2.58;0.85;;;;;;;26.93;31.08;95191.59;4919795;28;20110;-31
2022/04/07 00:17:39;;;;;;;4.18;0.80;;;;;;;26.93;30.95;95188.94;4921166;28;20027;-28
2022/04/07 00:20:06;;;;;;;1.38;0.68;;;;;;;26.93;30.99;95189.78;4922198;28;20043;-30
2022/04/07 00:22:31;;;;;;;3.72;0.95;;;;;;;26.93;30.98;95188.94;4923845;28;20024;-30
2022/04/07 00:24:56;;;;;;;2.33;0.70;;;;;;;26.92;30.95;95177.59;4922143;28;20047;-29
2022/04/07 00:27:22;;;;;;;2.63;0.70;;;;;;;26.93;30.90;95173.19;4921906;28;20031;-28
2022/04/07 00:29:47;;;;;;;1.88;0.82;;;;;;;26.93;30.92;95178.44;4920971;28;20035;-29
2022/04/07 00:32:13;;;;;;;3.45;0.63;;;;;;;26.94;30.96;95180.09;4923266;28;20027;-32
2022/04/07 00:34:39;;;;;;;3.22;0.50;;;;;;;26.92;30.97;95169.72;4923795;28;20492;-31
2022/04/07 00:37:04;;;;;;;2.92;0.50;;;;;;;26.93;30.98;95168.75;4920284;28;20917;-29
2022/04/07 00:39:30;;;;;;;1.30;0.50;;;;;;;26.94;30.94;95169.59;4925124;28;20038;-29
2022/04/07 00:41:55;;;;;;;2.08;0.63;;;;;;;26.93;30.92;95165.28;4925338;28;20470;-30
2022/04/07 00:44:22;;;;;;;3.28;0.65;;;;;;;26.93;30.90;95167.94;4924266;28;20058;-30
2022/04/07 00:46:48;;;;;;;1.23;0.50;;;;;;;26.94;30.92;95169.59;4926301;28;20035;-32
2022/04/07 00:49:14;;;;;;;2.13;0.68;;;;;;;26.93;30.98;95162.66;4924247;28;20133;-29
2022/04/07 00:51:40;;;;;;;1.88;0.70;;;;;;;26.92;30.81;95159.19;4926427;28;20031;-29
2022/04/07 00:54:06;;;;;;;1.77;0.60;;;;;;;26.93;30.91;95162.66;4925933;28;20038;-28
2022/04/07 00:56:32;;;;;;;2.67;0.63;;;;;;;26.92;30.91;95161.00;4927028;28;20036;-31
2022/04/07 00:58:57;;;;;;;3.00;0.60;;;;;;;26.92;30.85;95153.13;4926251;28;20047;-33
2022/04/07 01:01:27;;;;;;;1.05;0.57;;;;;;;26.93;30.85;95141.66;4926295;28;20032;-30
2022/04/07 01:03:54;;;;;;;1.73;0.60;;;;;;;26.93;30.81;95131.13;4923975;28;20159;-29
2022/04/07 01:06:19;;;;;;;0.88;0.50;;;;;;;26.92;30.99;95134.72;4922897;28;20039;-30
2022/04/07 01:08:45;;;;;;;1.92;0.50;;;;;;;26.92;30.79;95145.25;4920986;28;20528;-30
2022/04/07 01:11:10;;;;;;;1.60;0.40;;;;;;;26.92;30.73;95145.25;4934960;28;20031;-29
2022/04/07 01:13:52;;;;;;;2.50;0.77;;;;;;;26.91;30.73;95138.28;4893026;28;20122;-31
2022/04/07 01:16:19;;;;;;;2.20;0.57;;;;;;;26.91;30.68;95138.28;4897616;28;20110;-30
2022/04/07 01:18:48;;;;;;;1.08;0.43;;;;;;;26.91;30.73;95139.13;4895690;28;20505;-30
2022/04/07 01:21:14;;;;;;;1.25;0.55;;;;;;;26.91;30.69;95138.28;4896559;28;20115;-30
2022/04/07 01:23:39;;;;;;;1.35;0.50;;;;;;;26.90;30.73;95132.22;4900159;28;20085;-31
2022/04/07 01:26:05;;;;;;;1.33;0.40;;;;;;;26.91;30.71;95138.28;4904596;28;20779;-31
2022/04/07 01:28:32;;;;;;;0.90;0.40;;;;;;;26.91;30.70;95133.03;4896981;28;20760;-28
2022/04/07 01:30:57;;;;;;;0.55;0.38;;;;;;;26.91;30.77;95122.53;4900374;28;20038;-31
2022/04/07 01:33:23;;;;;;;1.63;0.52;;;;;;;26.90;30.61;95110.34;4900012;28;20032;-28
2022/04/07 01:35:48;;;;;;;1.35;0.65;;;;;;;26.90;30.65;95112.97;4894300;28;20035;-28
2022/04/07 01:38:16;;;;;;;2.63;0.45;;;;;;;26.91;30.59;95112.00;4915844;28;20237;-29
2022/04/07 01:40:41;;;;;;;2.72;0.70;;;;;;;26.88;30.58;95103.44;4903753;28;20553;-28
2022/04/07 01:43:07;;;;;;;0.85;0.30;;;;;;;26.89;30.68;95109.53;4915911;28;20035;-29
2022/04/07 01:45:33;;;;;;;1.45;0.30;;;;;;;26.89;30.57;95109.53;4900462;28;20031;-28
2022/04/07 01:47:59;;;;;;;1.52;0.30;;;;;;;26.88;30.63;95113.94;4912751;28;20126;-29
2022/04/07 01:50:24;;;;;;;1.60;0.38;;;;;;;26.88;30.49;95111.31;4912156;28;20326;-30
2022/04/07 01:52:50;;;;;;;1.55;0.40;;;;;;;26.88;30.61;95106.06;4901106;28;20027;-30
2022/04/07 01:55:18;;;;;;;2.95;0.50;;;;;;;26.88;30.54;95106.06;4902789;28;20078;-30
2022/04/07 01:57:44;;;;;;;2.60;0.40;;;;;;;26.88;30.53;95097.34;4903994;28;20062;-28
2022/04/07 02:00:10;;;;;;;2.50;0.30;;;;;;;26.88;30.49;95095.53;4897889;28;20161;-32
2022/04/07 02:02:35;;;;;;;1.10;0.50;;;;;;;26.89;30.64;95099.03;4893974;28;20028;-30
2022/04/07 02:05:10;;;;;;;1.27;0.40;;;;;;;26.87;30.60;95086.00;4914509;28;21431;-29
2022/04/07 02:07:37;;;;;;;6.55;0.85;;;;;;;26.88;30.46;95085.03;4901028;28;20039;-28
2022/04/07 02:10:03;;;;;;;1.23;0.43;;;;;;;26.87;30.48;95080.75;4901475;28;20042;-29
2022/04/07 02:12:29;;;;;;;1.00;0.45;;;;;;;26.87;30.54;95085.16;4912563;28;20043;-30
2022/04/07 02:14:55;;;;;;;1.10;0.35;;;;;;;26.86;30.57;95084.31;4928529;28;21404;-29
2022/04/07 02:17:21;;;;;;;1.50;0.50;;;;;;;26.86;30.56;95078.25;4930202;28;20510;-29
2022/04/07 02:19:58;;;;;;;3.15;0.85;;;;;;;26.86;30.54;95079.06;4926593;28;20035;-29
2022/04/07 02:22:23;;;;;;;2.65;0.50;;;;;;;26.87;30.50;95074.66;4927271;28;20504;-30
2022/04/07 02:24:49;;;;;;;0.93;0.30;;;;;;;26.86;30.60;95071.19;4926489;28;20027;-30
2022/04/07 02:27:15;;;;;;;2.38;0.35;;;;;;;26.85;30.59;95072.16;4929336;28;20035;-29
2022/04/07 02:29:42;;;;;;;2.70;0.30;;;;;;;26.85;30.41;95068.69;4931697;28;20650;-30
2022/04/07 02:32:08;;;;;;;1.77;0.50;;;;;;;26.85;30.55;95066.88;4943073;28;20065;-29
2022/04/07 02:34:33;;;;;;;2.35;0.40;;;;;;;26.84;30.62;95064.38;4930554;28;20113;-30
2022/04/07 02:36:59;;;;;;;1.20;0.40;;;;;;;26.82;30.42;95066.31;4925365;28;20648;-29
2022/04/07 02:39:24;;;;;;;0.32;0.25;;;;;;;26.85;30.40;95072.16;4930035;28;20063;-29
2022/04/07 02:41:49;;;;;;;1.02;0.25;;;;;;;26.84;30.60;95075.75;4929184;28;20027;-30
2022/04/07 02:44:17;;;;;;;0.47;0.38;;;;;;;26.84;30.54;95067.84;4933161;28;20039;-29
2022/04/07 02:46:43;;;;;;;1.27;0.32;;;;;;;26.83;30.52;95074.09;4932556;28;20032;-28
2022/04/07 02:49:08;;;;;;;2.20;0.60;;;;;;;26.83;30.53;95068.81;4930270;28;20148;-29
2022/04/07 02:51:34;;;;;;;1.27;0.30;;;;;;;26.84;30.53;95070.50;4927146;28;20039;-30
2022/04/07 02:53:59;;;;;;;1.23;0.30;;;;;;;26.83;30.50;95060.94;4927398;28;20612;-30
2022/04/07 02:56:25;;;;;;;0.88;0.38;;;;;;;26.83;30.54;95058.31;4923941;28;20562;-30
2022/04/07 02:58:51;;;;;;;1.50;0.40;;;;;;;26.83;30.58;95053.06;4923999;28;20153;-31
2022/04/07 03:01:17;;;;;;;1.85;0.50;;;;;;;26.83;30.51;95053.06;4926034;28;20386;-29
2022/04/07 03:03:42;;;;;;;1.48;0.25;;;;;;;26.82;30.52;95046.16;4926850;28;20478;-31
2022/04/07 03:06:08;;;;;;;0.75;0.40;;;;;;;26.82;30.39;95046.16;4928073;28;20702;-29
2022/04/07 03:08:33;;;;;;;1.08;0.40;;;;;;;26.81;30.41;95044.47;4937129;28;20512;-30
2022/04/07 03:11:00;;;;;;;1.13;0.40;;;;;;;26.82;30.48;95046.16;4928716;28;20485;-32
2022/04/07 03:13:25;;;;;;;0.57;0.30;;;;;;;26.82;30.70;95042.69;4927994;28;20040;-30
2022/04/07 03:15:51;;;;;;;0.63;0.30;;;;;;;26.83;30.64;95046.97;4930102;28;20031;-32
2022/04/07 03:18:16;;;;;;;0.88;0.40;;;;;;;26.82;30.27;95042.69;4926015;28;20691;-30
2022/04/07 03:20:42;;;;;;;0.40;0.30;;;;;;;26.82;30.37;95046.16;4926184;28;20059;-32
2022/04/07 03:23:07;;;;;;;0.50;0.30;;;;;;;26.81;30.37;95044.47;4926735;28;20039;-30
2022/04/07 03:25:33;;;;;;;0.30;0.28;;;;;;;26.81;30.41;95044.47;4924476;28;20098;-28
2022/04/07 03:27:58;;;;;;;0.95;0.40;;;;;;;26.81;30.29;95044.47;4928136;28;20031;-30
2022/04/07 03:30:24;;;;;;;0.80;0.30;;;;;;;26.81;30.47;95035.75;4928055;28;20832;-29
2022/04/07 03:32:49;;;;;;;4.15;0.68;;;;;;;26.81;30.39;95033.13;4923089;28;20126;-28
2022/04/07 03:35:14;;;;;;;1.67;0.40;;;;;;;26.80;30.32;95037.53;4924139;28;20031;-29
2022/04/07 03:37:40;;;;;;;1.55;0.40;;;;;;;26.78;30.31;95028.97;4924687;28;20031;-30
2022/04/07 03:40:06;;;;;;;1.35;0.45;;;;;;;26.80;30.33;95032.28;4935492;28;21297;-31
2022/04/07 03:42:31;;;;;;;2.05;0.50;;;;;;;26.79;30.18;95024.53;4924379;28;20039;-33
2022/04/07 03:44:56;;;;;;;0.30;0.20;;;;;;;26.79;30.30;95030.63;4923558;28;20051;-30
2022/04/07 03:47:22;;;;;;;5.97;0.43;;;;;;;26.78;30.38;95013.22;4921842;28;20039;-28
2022/04/07 03:49:48;;;;;;;2.72;0.40;;;;;;;26.79;30.45;95014.88;4924232;28;20046;-30
2022/04/07 03:52:15;;;;;;;2.17;0.50;;;;;;;26.79;30.35;95017.50;4923295;28;20043;-29
2022/04/07 03:54:40;;;;;;;1.13;0.30;;;;;;;26.79;30.42;95022.75;4925377;28;20027;-30
2022/04/07 03:57:06;;;;;;;0.77;0.20;;;;;;;26.78;30.43;95018.47;4928848;28;21107;-32
2022/04/07 03:59:37;;;;;;;1.05;0.32;;;;;;;26.79;30.55;95012.25;4925414;28;20605;-29
2022/04/07 04:02:05;;;;;;;0.77;0.35;;;;;;;26.79;30.45;95014.88;4916651;28;20031;-31
2022/04/07 04:04:30;;;;;;;3.60;0.38;;;;;;;26.78;30.53;95005.31;4917154;28;20034;-34
2022/04/07 04:06:56;;;;;;;1.25;0.20;;;;;;;26.78;30.32;95000.06;4919845;28;20039;-31
2022/04/07 04:09:21;;;;;;;0.73;0.20;;;;;;;26.79;30.28;94988.59;4925861;28;20023;-30
2022/04/07 04:11:46;;;;;;;1.88;0.40;;;;;;;26.79;30.56;94988.59;4922466;28;20034;-30
2022/04/07 04:14:12;;;;;;;1.27;0.40;;;;;;;26.79;30.34;94998.25;4918359;28;20035;-30
2022/04/07 04:16:37;;;;;;;0.60;0.28;;;;;;;26.79;30.31;94990.38;4923693;28;20027;-28
2022/04/07 04:19:03;;;;;;;0.75;0.32;;;;;;;26.79;30.31;94985.97;4924541;28;20035;-30
2022/04/07 04:21:28;;;;;;;0.65;0.20;;;;;;;26.79;30.46;94988.59;4923264;28;20024;-29
2022/04/07 04:23:53;;;;;;;0.22;0.10;;;;;;;26.80;30.23;94985.00;4930384;28;20949;-29
2022/04/07 04:26:19;;;;;;;0.50;0.30;;;;;;;26.79;30.26;94983.31;4920748;28;20046;-31
2022/04/07 04:28:44;;;;;;;0.75;0.20;;;;;;;26.79;30.41;94979.84;4923784;28;20046;-29
2022/04/07 04:31:09;;;;;;;0.10;0.10;;;;;;;26.79;30.39;94978.06;4924647;28;21807;-29
2022/04/07 04:33:35;;;;;;;0.85;0.25;;;;;;;26.79;30.16;94978.06;4927569;28;20461;-31
2022/04/07 04:36:00;;;;;;;1.45;0.40;;;;;;;26.79;30.30;94985.13;4928550;28;20034;-30
2022/04/07 04:38:26;;;;;;;1.73;0.40;;;;;;;26.79;30.34;94974.59;4924761;28;20030;-36
2022/04/07 04:40:51;;;;;;;0.77;0.20;;;;;;;26.79;30.15;94983.31;4922294;28;20071;-31
2022/04/07 04:43:17;;;;;;;1.42;0.52;;;;;;;26.78;30.34;94978.19;4925727;28;20035;-30
2022/04/07 04:45:42;;;;;;;0.35;0.20;;;;;;;26.77;30.36;94969.47;4923507;28;20038;-29
2022/04/07 04:48:07;;;;;;;0.40;0.25;;;;;;;26.78;30.29;94972.94;4927771;28;20020;-31
2022/04/07 04:50:34;;;;;;;0.32;0.30;;;;;;;26.77;30.31;94969.47;4925297;28;20405;-32
2022/04/07 04:52:59;;;;;;;0.35;0.15;;;;;;;26.78;30.08;94959.81;4927054;28;20042;-32
2022/04/07 04:55:24;;;;;;;0.32;0.13;;;;;;;26.77;30.44;94958.97;4924188;28;20027;-28
2022/04/07 04:57:50;;;;;;;1.20;0.22;;;;;;;26.77;30.21;94960.78;4919430;28;20035;-30
2022/04/07 05:00:16;;;;;;;0.98;0.20;;;;;;;26.77;30.19;94948.44;4914270;28;20505;-29
2022/04/07 05:02:41;;;;;;;0.70;0.20;;;;;;;26.77;30.20;94942.38;4925001;28;20135;-29
2022/04/07 05:05:07;;;;;;;0.38;0.35;;;;;;;26.76;30.33;94941.53;4921229;28;20035;-31
2022/04/07 05:07:32;;;;;;;0.30;0.30;;;;;;;26.77;30.32;94950.25;4925719;28;20043;-29
2022/04/07 05:09:58;;;;;;;0.20;0.17;;;;;;;26.76;30.29;94946.78;4925083;28;20055;-29
2022/04/07 05:12:23;;;;;;;0.20;0.20;;;;;;;26.76;30.28;94940.72;4924989;28;20038;-29
2022/04/07 05:14:49;;;;;;;1.55;0.45;;;;;;;26.76;30.30;94941.53;4919146;28;20031;-27
2022/04/07 05:17:14;;;;;;;0.30;0.28;;;;;;;26.76;30.16;94938.91;4925787;28;20035;-29
2022/04/07 05:19:41;;;;;;;0.10;0.10;;;;;;;26.76;30.21;94941.53;4923976;28;20032;-30
2022/04/07 05:22:06;;;;;;;0.22;0.22;;;;;;;26.76;30.23;94936.28;4928034;28;20699;-29
2022/04/07 05:24:31;;;;;;;0.10;0.10;;;;;;;26.74;30.12;94931.16;4922160;28;20998;-29
2022/04/07 05:26:57;;;;;;;0.35;0.25;;;;;;;26.76;30.18;94927.59;4923131;28;20046;-29
2022/04/07 05:29:22;;;;;;;0.73;0.20;;;;;;;26.75;30.33;94934.63;4927517;28;20031;-29
2022/04/07 05:31:47;;;;;;;0.10;0.10;;;;;;;26.75;30.10;94929.38;4924844;28;20027;-29
2022/04/07 05:34:13;;;;;;;0.63;0.30;;;;;;;26.74;30.15;94922.47;4926902;28;20038;-29
2022/04/07 05:36:40;;;;;;;0.45;0.20;;;;;;;26.75;30.10;94934.63;4924259;28;20061;-29
2022/04/07 05:39:05;;;;;;;0.98;0.20;;;;;;;26.74;30.17;94922.47;4924639;28;20293;-28
2022/04/07 05:41:31;;;;;;;12.07;0.60;;;;;;;26.75;30.29;94926.75;4920914;28;20048;-32
2022/04/07 05:43:56;;;;;;;1.75;0.20;;;;;;;26.75;30.30;94934.63;4922511;28;20030;-29
2022/04/07 05:46:22;;;;;;;0.85;0.30;;;;;;;26.75;30.33;94924.13;4923700;28;20027;-29
2022/04/07 05:48:47;;;;;;;0.75;0.20;;;;;;;26.74;30.40;94922.47;4923935;28;20039;-28
2022/04/07 05:51:13;;;;;;;1.23;0.20;;;;;;;26.74;30.40;94917.22;4924690;28;20027;-28
2022/04/07 05:53:39;;;;;;;8.40;0.30;;;;;;;26.74;30.25;94896.19;4931417;28;20126;-31
2022/04/07 05:56:04;;;;;;;2.17;0.20;;;;;;;26.73;30.41;94895.34;4926539;28;20049;-30
2022/04/07 05:58:30;;;;;;;2.60;0.30;;;;;;;26.74;30.35;94880.41;4926147;28;20036;-30
2022/04/07 06:00:55;;;;;;;3.25;0.30;;;;;;;26.73;30.49;94878.72;4922228;28;20496;-30
2022/04/07 06:03:21;;;;;;;0.95;0.17;;;;;;;26.73;30.07;94863.81;4923811;28;20034;-31
2022/04/07 06:05:52;;;;;;;1.17;0.28;;;;;;;26.73;30.05;94853.31;4924455;28;20927;-28
2022/04/07 06:08:18;;;;;;;5.32;0.30;;;;;;;26.73;30.22;94847.22;4920932;28;20046;-30
2022/04/07 06:10:43;;;;;;;4.25;0.35;;;;;;;26.71;30.31;94839.47;4924551;28;20410;-33
2022/04/07 06:13:09;;;;;;;2.85;0.50;;;;;;;26.72;29.87;94845.56;4921701;28;20036;-30
2022/04/07 06:15:34;;;;;;;1.83;0.40;;;;;;;26.73;30.14;94841.94;4921007;28;20039;-31
2022/04/07 06:18:00;;;;;;;2.45;0.90;;;;;;;26.72;30.41;94842.91;4922724;28;20126;-32
2022/04/07 06:20:25;;;;;;;7.00;1.00;;;;;;;26.71;30.22;94842.09;4924910;28;20039;-31
2022/04/07 06:22:50;;;;;;;3.17;1.10;;;;;;;26.71;30.04;94841.28;4918175;28;20031;-31
2022/04/07 06:25:16;;;;;;;2.90;1.27;;;;;;;26.70;30.26;94850.94;4921095;28;20146;-31
2022/04/07 06:27:43;;;;;;;5.50;1.35;;;;;;;26.70;30.10;94842.25;4917453;28;20036;-32
2022/04/07 06:30:10;;;;;;;6.18;1.17;;;;;;;26.69;30.17;94844.03;4918373;28;20517;-30
2022/04/07 06:32:36;;;;;;;2.50;1.02;;;;;;;26.70;29.93;94843.06;4935246;28;20497;-32
2022/04/07 06:35:02;;;;;;;2.88;1.40;;;;;;;26.70;30.18;94842.25;4921599;28;20039;-31
2022/04/07 06:37:28;;;;;;;6.88;1.27;;;;;;;26.70;30.44;94844.88;4926330;28;20736;-32
2022/04/07 06:40:01;;;;;;;5.00;1.33;;;;;;;26.70;30.36;94831.72;4917239;28;20034;-31
2022/04/07 06:42:26;;;;;;;6.00;1.65;;;;;;;26.70;30.17;94829.09;4920603;28;20031;-30
2022/04/07 06:44:54;;;;;;;3.78;1.23;;;;;;;26.69;30.13;94830.88;4923745;28;20041;-31
2022/04/07 06:47:21;;;;;;;9.10;0.98;;;;;;;26.69;30.34;94824.81;4921813;28;20039;-34
2022/04/07 06:49:52;;;;;;;17.40;1.77;;;;;;;26.69;30.30;94824.81;4934589;28;20054;-30
2022/04/07 06:52:18;;;;;;;5.30;1.92;;;;;;;26.68;30.27;94823.13;4920902;28;20027;-32
2022/04/07 06:54:44;;;;;;;5.45;1.77;;;;;;;26.68;30.24;94823.13;4921635;28;20039;-31
2022/04/07 06:57:09;;;;;;;4.15;1.65;;;;;;;26.69;30.15;94830.06;4915914;28;20751;-31
2022/04/07 06:59:34;;;;;;;7.90;1.80;;;;;;;26.68;30.20;94825.75;4920065;28;20042;-31
2022/04/07 07:02:00;;;;;;;6.25;1.55;;;;;;;26.68;30.04;94839.75;4921796;28;20047;-34
2022/04/07 07:04:25;;;;;;;4.55;1.50;;;;;;;26.68;30.13;94817.88;4917497;28;20027;-30
2022/04/07 07:06:51;;;;;;;10.35;2.03;;;;;;;26.68;30.04;94823.97;4921246;28;20039;-31
2022/04/07 07:09:16;;;;;;;8.63;1.98;;;;;;;26.67;30.05;94798.69;4921888;28;20039;-31
2022/04/07 07:11:41;;;;;;;5.18;1.40;;;;;;;26.68;30.05;94802.13;4912793;28;20035;-31
2022/04/07 07:14:07;;;;;;;4.70;1.30;;;;;;;26.68;30.07;94796.88;4916752;28;20095;-33
2022/04/07 07:16:32;;;;;;;4.40;1.60;;;;;;;26.68;30.03;94783.72;4915636;28;20023;-31
2022/04/07 07:18:58;;;;;;;6.63;1.83;;;;;;;26.67;30.07;94787.31;4923925;28;20059;-31
2022/04/07 07:21:23;;;;;;;4.53;1.45;;;;;;;26.68;30.04;94781.09;4922945;28;20517;-33
2022/04/07 07:23:48;;;;;;;5.22;1.17;;;;;;;26.67;29.94;94766.31;4916557;28;22229;-31
2022/04/07 07:26:14;;;;;;;8.75;1.67;;;;;;;26.68;29.92;94770.59;4918294;28;20106;-33
2022/04/07 07:28:39;;;;;;;3.65;1.35;;;;;;;26.67;30.04;94761.06;4922635;28;20023;-30
2022/04/07 07:31:05;;;;;;;5.53;1.92;;;;;;;26.68;30.02;94766.19;4921758;28;20569;-30
2022/04/07 07:33:30;;;;;;;3.22;1.25;;;;;;;26.68;30.27;94765.34;4920935;28;20521;-30
2022/04/07 07:35:56;;;;;;;3.33;1.48;;;;;;;26.68;30.00;94760.09;4923663;28;20193;-30
2022/04/07 07:38:22;;;;;;;6.78;1.48;;;;;;;26.68;30.01;94770.59;4919987;28;20031;-32
2022/04/07 07:40:48;;;;;;;3.03;1.17;;;;;;;26.68;29.86;94754.81;4919796;28;20031;-30
2022/04/07 07:43:13;;;;;;;4.10;1.63;;;;;;;26.68;30.06;94760.94;4919242;28;20035;-29
2022/04/07 07:45:39;;;;;;;3.60;1.02;;;;;;;26.69;29.96;94761.75;4919930;28;20019;-30
2022/04/07 07:48:04;;;;;;;4.00;1.33;;;;;;;26.69;30.01;94746.00;4911571;28;20162;-30
2022/04/07 07:50:30;;;;;;;4.60;1.65;;;;;;;26.68;30.04;94745.16;4917276;28;20520;-31
2022/04/07 07:52:55;;;;;;;3.25;1.25;;;;;;;26.70;30.03;94743.22;4914567;28;20730;-34
2022/04/07 07:55:21;;;;;;;2.90;1.10;;;;;;;26.67;29.93;94740.88;4921241;28;20042;-32
2022/04/07 07:57:46;;;;;;;5.35;1.70;;;;;;;26.69;29.92;94735.50;4918838;28;20114;-33
2022/04/07 08:00:14;;;;;;;5.85;1.50;;;;;;;26.70;30.06;94731.88;4916776;28;20035;-30
2022/04/07 08:02:39;;;;;;;3.75;1.13;;;;;;;26.70;30.01;94721.38;4917176;28;20030;-31
2022/04/07 08:05:06;;;;;;;2.75;1.70;;;;;;;26.71;29.89;94718.63;4916041;28;20042;-30
2022/04/07 08:07:32;;;;;;;4.38;1.30;;;;;;;26.71;29.95;94707.28;4916629;28;20487;-32
2022/04/07 08:09:57;;;;;;;3.40;1.15;;;;;;;26.71;29.90;94696.75;4919153;28;20146;-28
2022/04/07 08:12:26;;;;;;;2.80;1.23;;;;;;;26.70;29.96;94695.09;4918156;28;21058;-30
2022/04/07 08:14:51;;;;;;;2.00;0.70;;;;;;;26.65;28.82;94692.06;4915668;28;20037;-29
2022/04/07 08:17:17;;;;;;;2.85;0.52;;;;;;;26.53;27.94;94684.31;4912186;28;20404;-30
2022/04/07 08:19:42;;;;;;;1.52;0.55;;;;;;;26.37;27.64;94684.00;4929405;28;21444;-30
2022/04/07 08:22:08;;;;;;;3.42;0.60;;;;;;;26.18;27.31;94681.22;4921036;28;21018;-29
2022/04/07 08:24:34;;;;;;;8.35;0.63;;;;;;;26.03;27.08;94683.38;4923647;28;20340;-32
2022/04/07 08:27:01;;;;;;;2.30;0.50;;;;;;;25.88;27.31;94690.81;4918865;28;20027;-29
2022/04/07 08:29:26;;;;;;;2.08;0.50;;;;;;;25.80;27.38;94683.59;4919264;28;20134;-34
2022/04/07 08:31:52;;;;;;;6.13;0.80;;;;;;;25.75;27.54;94691.03;4919704;28;20035;-31
2022/04/07 08:34:18;;;;;;;11.32;0.63;;;;;;;25.75;27.67;94675.31;4911460;28;20043;-31
2022/04/07 08:36:44;;;;;;;2.97;0.63;;;;;;;25.75;27.79;94680.56;4914817;28;20115;-32
2022/04/07 08:39:09;;;;;;;3.15;0.77;;;;;;;25.77;27.77;94683.00;4924269;28;20043;-31
2022/04/07 08:41:35;;;;;;;2.90;0.80;;;;;;;25.79;27.73;94675.84;4922823;28;20097;-32
2022/04/07 08:44:00;;;;;;;8.18;0.60;;;;;;;25.81;27.98;94648.53;4924370;28;20694;-31
2022/04/07 08:46:26;;;;;;;3.45;0.88;;;;;;;25.85;27.97;94653.50;4917453;28;20035;-31
2022/04/07 08:48:52;;;;;;;5.90;0.60;;;;;;;25.88;27.92;94655.84;4922148;28;20027;-30
2022/04/07 08:51:17;;;;;;;4.55;0.90;;;;;;;25.91;28.07;94653.81;4937663;28;20035;-31
2022/04/07 08:53:43;;;;;;;1.35;0.45;;;;;;;25.94;28.15;94642.22;4922552;28;20066;-33
2022/04/07 08:56:08;;;;;;;5.55;0.55;;;;;;;25.98;28.26;94653.25;4922767;28;20035;-32
2022/04/07 08:58:33;;;;;;;1.42;0.30;;;;;;;26.01;28.26;94635.44;4939689;28;20043;-30
2022/04/07 09:01:00;;;;;;;1.95;0.47;;;;;;;26.03;28.15;94646.66;4929519;28;20039;-31
2022/04/07 09:03:25;;;;;;;3.88;0.50;;;;;;;26.07;28.36;94658.53;4927683;28;20038;-31
2022/04/07 09:06:01;;;;;;;3.80;0.40;;;;;;;26.08;28.30;94623.44;4919836;28;20114;-31
2022/04/07 09:08:34;;;;;;;3.58;0.47;;;;;;;26.12;28.37;94638.94;4923252;28;20035;-30
2022/04/07 09:11:00;;;;;;;2.58;0.60;;;;;;;26.14;28.32;94621.22;4927291;28;20066;-30
2022/04/07 09:13:36;;;;;;;2.67;0.73;;;;;;;26.15;28.41;94633.38;4924626;28;20391;-32
2022/04/07 09:16:03;;;;;;;2.25;0.80;;;;;;;26.18;28.57;94639.22;4922392;28;20039;-31
2022/04/07 09:18:32;;;;;;;4.25;1.00;;;;;;;26.20;28.48;94625.94;4927399;28;20179;-31
2022/04/07 09:20:58;;;;;;;6.63;0.70;;;;;;;26.22;28.50;94631.88;4939844;28;20073;-30
2022/04/07 09:23:23;;;;;;;4.93;0.95;;;;;;;26.23;28.54;94625.66;4929676;28;20028;-29
2022/04/07 09:25:52;;;;;;;3.00;0.82;;;;;;;26.26;28.55;94635.94;4933448;28;20695;-30
2022/04/07 09:28:30;;;;;;;2.97;0.60;;;;;;;26.27;28.55;94626.25;4931019;28;20043;-29
2022/04/07 09:30:57;;;;;;;4.47;0.85;;;;;;;26.28;28.55;94602.47;4934526;28;20031;-32
2022/04/07 09:33:23;;;;;;;4.95;1.00;;;;;;;26.30;28.59;94616.31;4927710;28;20051;-28
2022/04/07 09:35:58;;;;;;;3.97;0.70;;;;;;;26.32;28.57;94609.09;4927042;28;20038;-30
2022/04/07 09:38:24;;;;;;;2.38;0.60;;;;;;;26.33;28.55;94621.28;4935185;28;20106;-30
2022/04/07 09:40:49;;;;;;;5.40;0.98;;;;;;;26.35;28.56;94614.09;4929662;28;20086;-30
2022/04/07 09:43:15;;;;;;;1.55;0.70;;;;;;;26.36;28.72;94609.69;4931115;28;20040;-30
2022/04/07 09:45:44;;;;;;;4.38;1.02;;;;;;;26.37;28.71;94605.25;4932353;28;20450;-29
2022/04/07 09:48:10;;;;;;;2.58;0.75;;;;;;;26.38;28.72;94591.16;4935517;28;20027;-29
2022/04/07 09:50:36;;;;;;;1.30;0.63;;;;;;;26.40;28.80;94589.22;4934824;28;20039;-28
2022/04/07 09:53:03;;;;;;;2.30;0.85;;;;;;;26.40;28.78;94594.47;4934283;28;20035;-30
2022/04/07 09:55:36;;;;;;;2.60;0.80;;;;;;;26.41;28.86;94586.47;4930617;28;20052;-30
2022/04/07 09:58:06;;;;;;;2.63;0.95;;;;;;;26.42;28.95;94584.63;4932939;28;20044;-30
2022/04/07 10:00:32;;;;;;;1.90;0.65;;;;;;;26.45;28.85;94576.50;4928223;28;20736;-30
2022/04/07 10:02:57;;;;;;;2.63;0.60;;;;;;;26.45;28.87;94561.56;4924231;28;20023;-30
2022/04/07 10:05:24;;;;;;;5.10;0.77;;;;;;;26.46;29.05;94549.25;4919309;28;20031;-30
2022/04/07 10:07:49;;;;;;;3.22;0.70;;;;;;;26.47;28.83;94564.06;4918637;28;20065;-30
2022/04/07 10:10:15;;;;;;;3.33;0.90;;;;;;;26.48;28.89;94545.50;4915346;28;20051;-30
2022/04/07 10:12:40;;;;;;;2.33;0.68;;;;;;;26.49;28.87;94535.84;4921783;28;20035;-32
2022/04/07 10:15:06;;;;;;;2.55;1.00;;;;;;;26.51;28.98;94536.56;4921591;28;20081;-30
2022/04/07 10:17:32;;;;;;;4.13;0.65;;;;;;;26.51;28.99;94549.69;4922520;28;20122;-30
2022/04/07 10:20:02;;;;;;;1.90;0.75;;;;;;;26.53;29.14;94520.63;4921815;28;20027;-31
2022/04/07 10:22:55;;;;;;;6.10;0.95;;;;;;;26.54;29.03;94512.63;4924500;28;20034;-30
2022/04/07 10:25:22;;;;;;;3.90;0.75;;;;;;;26.54;29.07;94512.63;4924632;28;20031;-30
2022/04/07 10:27:49;;;;;;;4.25;0.73;;;;;;;26.55;29.05;94530.03;4927732;28;20043;-31
2022/04/07 10:30:16;;;;;;;3.28;0.70;;;;;;;26.55;29.09;94519.50;4929302;28;20115;-31
2022/04/07 10:32:56;;;;;;;5.78;0.70;;;;;;;26.56;29.20;94515.94;4918068;28;20745;-30
2022/04/07 10:35:27;;;;;;;1.55;0.65;;;;;;;26.57;29.08;94509.72;4906935;28;20062;-29
2022/04/07 10:37:52;;;;;;;1.30;0.70;;;;;;;26.57;29.11;94495.75;4917538;28;22298;-30
2022/04/07 10:40:49;;;;;;;3.33;0.80;;;;;;;26.58;29.12;94508.72;4920086;28;20066;-29
2022/04/07 10:43:14;;;;;;;2.55;0.73;;;;;;;26.60;29.04;94475.28;4920970;28;20076;-31
2022/04/07 10:45:41;;;;;;;4.18;0.70;;;;;;;26.60;29.08;94477.91;4924341;28;20130;-31
2022/04/07 10:48:23;;;;;;;2.15;0.65;;;;;;;26.62;29.10;94480.41;4920842;28;20502;-31
2022/04/07 10:50:54;;;;;;;4.63;0.80;;;;;;;26.63;29.22;94496.97;4919475;28;20142;-30
2022/04/07 10:53:20;;;;;;;2.50;0.57;;;;;;;26.63;29.27;94475.97;4919716;28;20035;-30
2022/04/07 10:55:54;;;;;;;8.60;0.65;;;;;;;26.64;29.16;94488.97;4918368;28;20037;-30
2022/04/07 10:58:20;;;;;;;5.63;0.82;;;;;;;26.64;29.30;94475.81;4919221;28;20020;-31
2022/04/07 11:00:46;;;;;;;3.00;0.57;;;;;;;26.65;29.36;94458.28;4919037;28;20035;-29
2022/04/07 11:03:15;;;;;;;3.50;0.70;;;;;;;26.67;29.28;94469.44;4922101;28;20035;-33
2022/04/07 11:05:53;;;;;;;2.72;0.47;;;;;;;26.68;29.35;94476.34;4929448;28;20042;-31
2022/04/07 11:08:22;;;;;;;2.90;0.85;;;;;;;26.69;29.46;94457.00;4921519;28;20051;-32
2022/04/07 11:10:48;;;;;;;3.35;1.05;;;;;;;26.69;29.45;94449.94;4915118;28;20038;-30
2022/04/07 11:13:13;;;;;;;3.90;0.90;;;;;;;26.70;29.41;94438.44;4927223;28;20027;-29
2022/04/07 11:15:54;;;;;;;2.25;0.70;;;;;;;26.71;29.50;94434.03;4924910;28;20091;-29
2022/04/07 11:18:38;;;;;;;6.72;1.08;;;;;;;26.72;29.47;94433.06;4919726;28;20908;-30
2022/04/07 11:21:11;;;;;;;2.97;0.70;;;;;;;26.73;29.54;94417.16;4921537;28;20023;-31
2022/04/07 11:23:41;;;;;;;8.15;0.93;;;;;;;26.74;29.45;94433.75;4918363;28;20394;-30
2022/04/07 11:26:10;;;;;;;2.08;0.68;;;;;;;26.76;29.65;94446.75;4919856;28;20039;-31
2022/04/07 11:28:37;;;;;;;2.40;0.70;;;;;;;26.76;29.66;94442.31;4919476;28;20050;-31
2022/04/07 11:31:04;;;;;;;2.42;0.60;;;;;;;26.77;29.66;94448.41;4936685;28;20122;-33